Hildebran, North Carolina
Current Conditions -  °F | °C
As of 1:53 PM on Friday 24 Oct 2014 (Local Time) from KHKY Reporting Station
Clear Clear  
Wind Chill: 65°   Ceiling: Unl
Heat Index: 65°   Visibility: 10mi
Dew Point: 40°   Wind: 5mph
Humidity: 40%   Direction: 270°W
Pressure: 30.02"   Gusts: NA
Location:  35.71°N, 81.42°W
Report Text: KHKY 241753Z 27004KT 10SM CLR 18/04 A3002 RMK AO2 SLP153 T01830044 10183 20067 58021
Loading
Personal Weather Stations






























Interactive Weather Map
Tropical Storm Tracking
New forecast layout! Learn more

10-Day Weather Forecast

Advertisements
Track Severe Weather on mobile